createdAt,value
2023-06-09T00:01:11.114Z,14.13
2023-06-09T00:05:26.856Z,13.52
2023-06-09T00:09:30.975Z,15.93
2023-06-09T00:13:32.998Z,15.23
2023-06-09T00:17:35.718Z,14.32
2023-06-09T00:21:38.540Z,13.60
2023-06-09T00:25:40.697Z,14.18
2023-06-09T00:29:42.803Z,15.25
2023-06-09T00:33:44.970Z,12.63
2023-06-09T00:37:49.186Z,12.52
2023-06-09T00:41:51.386Z,15.20
2023-06-09T00:45:54.290Z,14.00
2023-06-09T00:49:56.392Z,13.52
2023-06-09T00:53:58.570Z,11.80
2023-06-09T00:58:02.371Z,16.05
2023-06-09T01:02:05.711Z,16.17
2023-06-09T01:06:39.891Z,13.25
2023-06-09T01:11:01.773Z,13.75
2023-06-09T01:15:13.243Z,12.25
2023-06-09T01:19:27.126Z,18.73
2023-06-09T01:23:32.014Z,12.77
2023-06-09T01:27:37.614Z,17.40
2023-06-09T01:31:40.088Z,13.68
2023-06-09T01:35:42.803Z,13.15
2023-06-09T01:39:47.231Z,16.23
2023-06-09T01:43:49.496Z,13.98
2023-06-09T01:47:52.370Z,15.15
2023-06-09T01:52:19.944Z,14.50
2023-06-09T01:56:29.056Z,13.60
2023-06-09T02:00:31.624Z,16.90
2023-06-09T02:04:35.686Z,16.10
2023-06-09T02:08:38.655Z,16.80
2023-06-09T02:12:40.962Z,14.95
2023-06-09T02:16:43.198Z,15.68
2023-06-09T02:20:45.414Z,14.98
2023-06-09T02:24:48.594Z,18.30
2023-06-09T02:28:50.664Z,20.30
2023-06-09T02:32:53.423Z,15.32
2023-06-09T02:36:55.646Z,15.32
2023-06-09T02:40:57.749Z,19.15
2023-06-09T02:45:00.015Z,17.30
2023-06-09T02:49:02.671Z,17.48
2023-06-09T02:53:04.435Z,23.02
2023-06-09T02:57:08.336Z,15.38
2023-06-09T03:01:12.726Z,13.98
2023-06-09T03:05:15.458Z,15.27
2023-06-09T03:09:20.267Z,16.15
2023-06-09T03:13:26.406Z,17.50
2023-06-09T03:17:30.640Z,16.15
2023-06-09T03:21:36.468Z,15.75
2023-06-09T03:25:40.345Z,15.65
2023-06-09T03:29:44.145Z,17.42
2023-06-09T03:33:46.675Z,17.77
2023-06-09T03:37:49.332Z,14.88
2023-06-09T03:41:55.336Z,15.40
2023-06-09T03:45:59.168Z,20.00
2023-06-09T03:50:01.530Z,13.93
2023-06-09T03:54:05.499Z,15.18
2023-06-09T03:58:10.020Z,13.77
2023-06-09T04:02:12.412Z,16.27
2023-06-09T04:06:14.696Z,13.27
2023-06-09T04:10:16.915Z,14.75
2023-06-09T04:14:19.758Z,15.10
2023-06-09T04:18:24.382Z,15.15
2023-06-09T04:22:27.158Z,13.65
2023-06-09T04:26:30.888Z,13.82
2023-06-09T04:30:35.639Z,14.30
2023-06-09T04:34:41.804Z,11.73
2023-06-09T04:38:48.079Z,11.82
2023-06-09T04:42:51.863Z,15.23
2023-06-09T04:46:54.999Z,13.35
2023-06-09T04:51:01.830Z,13.90
2023-06-09T04:55:08.936Z,13.75
2023-06-09T04:59:12.786Z,14.18
2023-06-09T05:03:18.913Z,10.18
2023-06-09T05:07:23.582Z,14.60
2023-06-09T05:11:25.757Z,14.13
2023-06-09T05:15:28.575Z,10.05
2023-06-09T05:19:30.959Z,10.90
2023-06-09T05:23:34.302Z,11.63
2023-06-09T05:27:37.593Z,12.15
2023-06-09T05:31:41.578Z,9.50
2023-06-09T05:35:43.685Z,13.75
2023-06-09T05:39:47.204Z,10.35
2023-06-09T05:43:49.275Z,12.63
2023-06-09T05:47:51.773Z,19.38
2023-06-09T05:51:54.324Z,10.95
2023-06-09T05:55:59.950Z,13.80
2023-06-09T06:00:09.775Z,12.00
2023-06-09T06:04:15.174Z,14.75
2023-06-09T06:08:17.256Z,9.27
2023-06-09T06:12:19.296Z,11.85
2023-06-09T06:16:22.152Z,8.77
2023-06-09T06:20:25.085Z,9.40
2023-06-09T06:24:27.204Z,9.35
2023-06-09T06:28:29.370Z,8.18
2023-06-09T06:32:31.621Z,7.80
2023-06-09T06:36:33.767Z,8.52
2023-06-09T06:40:36.012Z,8.18
2023-06-09T06:44:38.022Z,7.30
2023-06-09T06:48:42.494Z,9.02
2023-06-09T06:52:44.610Z,9.68
2023-06-09T06:56:46.657Z,5.47
2023-06-09T07:00:48.321Z,12.02
2023-06-09T07:04:52.032Z,10.40
2023-06-09T07:08:55.304Z,7.38
2023-06-09T07:12:57.391Z,7.05
2023-06-09T07:16:59.644Z,7.30
2023-06-09T07:21:04.767Z,7.95
2023-06-09T07:25:07.881Z,8.55
2023-06-09T07:29:10.289Z,6.78
2023-06-09T07:33:12.359Z,12.18
2023-06-09T07:37:14.655Z,6.97
2023-06-09T07:41:16.840Z,7.68
2023-06-09T07:45:19.463Z,10.48
2023-06-09T07:49:21.844Z,18.55
2023-06-09T07:53:24.593Z,11.48
2023-06-09T07:57:26.638Z,7.40
2023-06-09T08:01:30.434Z,6.28
2023-06-09T08:05:35.112Z,5.15
2023-06-09T08:09:38.990Z,7.75
2023-06-09T08:13:41.063Z,11.63
2023-06-09T08:17:43.231Z,4.18
2023-06-09T08:21:45.381Z,4.35
2023-06-09T08:25:48.258Z,7.15
2023-06-09T08:29:50.486Z,12.38
2023-06-09T08:33:53.165Z,11.90
2023-06-09T08:37:55.185Z,9.20
2023-06-09T08:42:00.375Z,7.80
2023-06-09T08:46:06.128Z,4.85
2023-06-09T08:50:09.298Z,4.43
2023-06-09T08:54:14.698Z,8.02
2023-06-09T08:58:16.916Z,5.65
2023-06-09T09:02:19.479Z,6.40
2023-06-09T09:06:21.642Z,4.15
2023-06-09T09:10:24.164Z,6.88
2023-06-09T09:14:26.411Z,12.05
2023-06-09T09:18:32.946Z,5.20
2023-06-09T09:22:51.934Z,4.93
2023-06-09T09:26:59.265Z,5.80
2023-06-09T09:31:01.956Z,6.97
2023-06-09T09:35:04.883Z,5.72
2023-06-09T09:39:07.156Z,5.00
2023-06-09T09:43:11.266Z,3.83
2023-06-09T09:47:16.192Z,5.40
2023-06-09T09:51:21.941Z,5.53
2023-06-09T09:55:25.387Z,4.50
2023-06-09T09:59:27.881Z,6.03
2023-06-09T10:03:31.313Z,7.30
2023-06-09T10:07:39.295Z,3.65
2023-06-09T10:11:42.273Z,3.65
2023-06-09T10:15:45.432Z,3.85
2023-06-09T10:19:52.911Z,5.35
2023-06-09T10:23:57.341Z,4.23
2023-06-09T10:27:59.425Z,5.57
2023-06-09T10:32:03.200Z,3.83
2023-06-09T10:36:06.749Z,5.25
2023-06-09T10:40:23.664Z,4.03
2023-06-09T10:44:35.597Z,3.47
2023-06-09T10:48:45.565Z,8.77
2023-06-09T10:52:50.889Z,3.63
2023-06-09T10:56:55.683Z,8.48
2023-06-09T11:01:08.741Z,6.03
2023-06-09T11:05:12.858Z,7.15
2023-06-09T11:09:15.732Z,3.30
2023-06-09T11:13:40.543Z,4.13
2023-06-09T11:17:44.533Z,3.83
2023-06-09T11:22:03.901Z,2.58
2023-06-09T11:30:31.262Z,2.70
2023-06-09T11:34:50.286Z,2.42
2023-06-09T11:38:53.056Z,3.28
2023-06-09T11:42:59.701Z,3.08
2023-06-09T11:47:03.269Z,3.65
2023-06-09T11:51:08.327Z,2.35
2023-06-09T11:55:15.932Z,3.30
2023-06-09T11:59:27.518Z,3.20
2023-06-09T12:03:37.490Z,4.65
2023-06-09T12:07:42.429Z,4.05
2023-06-09T12:11:52.110Z,4.60
2023-06-09T12:15:54.248Z,4.43
2023-06-09T12:19:57.552Z,3.00
2023-06-09T12:23:59.890Z,8.90
2023-06-09T12:28:24.257Z,7.40
2023-06-09T12:32:27.176Z,12.25
2023-06-09T12:36:39.734Z,11.18
2023-06-09T12:40:53.827Z,6.47
2023-06-09T12:44:59.022Z,10.32
2023-06-09T12:49:08.985Z,8.82
2023-06-09T12:53:12.797Z,7.80
2023-06-09T12:57:14.893Z,6.22
2023-06-09T13:01:17.536Z,6.95
2023-06-09T13:05:19.831Z,8.30
2023-06-09T13:09:22.173Z,11.32
2023-06-09T13:13:24.303Z,13.18
2023-06-09T13:17:26.301Z,9.68
2023-06-09T13:21:43.973Z,10.95
2023-06-09T13:29:49.555Z,9.30
2023-06-09T13:33:51.917Z,6.93
2023-06-09T13:37:54.034Z,6.75
2023-06-09T13:41:56.203Z,6.55
2023-06-09T13:45:58.268Z,6.78
2023-06-09T13:50:00.476Z,6.00
2023-06-09T13:54:02.603Z,6.70
2023-06-09T13:58:04.801Z,6.15
2023-06-09T14:02:07.625Z,7.65
2023-06-09T14:06:09.743Z,7.60
2023-06-09T14:10:14.552Z,6.47
2023-06-09T14:14:17.804Z,7.70
2023-06-09T14:18:19.948Z,9.52
2023-06-09T14:22:23.768Z,5.32
2023-06-09T14:26:26.130Z,3.80
2023-06-09T14:30:29.135Z,6.15
2023-06-09T14:34:31.910Z,6.43
2023-06-09T14:38:34.266Z,6.32
2023-06-09T14:42:36.637Z,5.57
2023-06-09T14:46:38.802Z,5.55
2023-06-09T14:50:47.799Z,4.95
2023-06-09T14:54:51.375Z,4.05
2023-06-09T14:58:53.438Z,5.88
2023-06-09T15:03:00.112Z,4.40
2023-06-09T15:07:02.446Z,5.68
2023-06-09T15:11:05.238Z,4.82
2023-06-09T15:15:08.164Z,5.80
2023-06-09T15:19:10.320Z,6.82
2023-06-09T15:23:13.381Z,7.20
2023-06-09T15:27:15.701Z,7.63
2023-06-09T15:31:17.701Z,11.35
2023-06-09T15:35:19.785Z,10.18
2023-06-09T15:39:21.715Z,6.18
2023-06-09T15:43:25.241Z,8.15
2023-06-09T15:47:30.181Z,10.55
2023-06-09T15:51:32.364Z,9.68
2023-06-09T15:55:34.997Z,11.18
2023-06-09T15:59:36.805Z,9.27
2023-06-09T16:03:38.994Z,11.00
2023-06-09T16:07:41.093Z,11.13
2023-06-09T16:11:43.223Z,11.52
2023-06-09T16:15:45.405Z,10.60
2023-06-09T16:19:47.465Z,7.65
2023-06-09T16:23:50.352Z,8.27
2023-06-09T16:27:52.766Z,8.63
2023-06-09T16:31:56.195Z,9.05
2023-06-09T16:35:58.307Z,9.90
2023-06-09T16:40:00.754Z,8.05
2023-06-09T16:44:02.764Z,12.40
2023-06-09T16:48:05.108Z,6.80
2023-06-09T16:52:07.687Z,7.35
2023-06-09T16:56:09.880Z,8.10
2023-06-09T17:00:12.641Z,7.85
2023-06-09T17:04:15.067Z,7.85
2023-06-09T17:08:17.254Z,7.57
2023-06-09T17:12:19.286Z,6.30
2023-06-09T17:16:21.788Z,9.85
2023-06-09T17:20:24.107Z,7.35
2023-06-09T17:24:26.216Z,6.38
2023-06-09T17:28:28.323Z,6.82
2023-06-09T17:32:30.791Z,7.53
2023-06-09T17:36:33.114Z,8.98
2023-06-09T17:40:35.335Z,9.10
2023-06-09T17:44:37.625Z,6.80
2023-06-09T17:48:41.794Z,6.10
2023-06-09T17:52:43.856Z,9.98
2023-06-09T17:56:46.006Z,6.20
2023-06-09T18:00:50.555Z,8.07
2023-06-09T18:04:53.291Z,6.82
2023-06-09T18:08:55.393Z,7.90
2023-06-09T18:12:57.564Z,8.73
2023-06-09T18:16:59.642Z,6.63
2023-06-09T18:21:01.708Z,7.43
2023-06-09T18:25:04.185Z,6.00
2023-06-09T18:29:06.838Z,6.57
2023-06-09T18:33:08.954Z,6.72
2023-06-09T18:37:11.372Z,7.47
2023-06-09T18:41:13.589Z,7.00
2023-06-09T18:45:15.812Z,7.40
2023-06-09T18:49:18.111Z,6.20
2023-06-09T18:53:20.174Z,6.82
2023-06-09T18:57:22.237Z,7.22
2023-06-09T19:01:24.827Z,6.60
2023-06-09T19:05:27.053Z,8.45
2023-06-09T19:09:29.147Z,7.00
2023-06-09T19:13:31.548Z,8.88
2023-06-09T19:17:34.574Z,7.90
2023-06-09T19:21:36.970Z,10.35
2023-06-09T19:25:39.300Z,6.45
2023-06-09T19:29:41.536Z,8.55
2023-06-09T19:33:44.196Z,7.68
2023-06-09T19:37:46.338Z,7.25
2023-06-09T19:41:48.444Z,7.63
2023-06-09T19:45:50.577Z,7.75
2023-06-09T19:49:52.966Z,10.45
2023-06-09T19:53:57.541Z,9.38
2023-06-09T19:57:59.328Z,9.68
2023-06-09T20:02:01.687Z,9.48
2023-06-09T20:06:03.887Z,11.48
2023-06-09T20:10:07.548Z,10.23
2023-06-09T20:14:10.287Z,14.85
2023-06-09T20:18:12.255Z,14.55
2023-06-09T20:22:15.012Z,12.77
2023-06-09T20:26:19.141Z,12.45
2023-06-09T20:30:23.392Z,10.55
2023-06-09T20:34:26.032Z,12.13
2023-06-09T20:38:28.634Z,13.82
2023-06-09T20:42:31.304Z,16.73
2023-06-09T20:46:34.163Z,17.33
2023-06-09T20:50:37.020Z,13.30
2023-06-09T20:54:39.482Z,14.40
2023-06-09T20:58:42.479Z,14.38
2023-06-09T21:02:48.326Z,10.95
2023-06-09T21:06:50.610Z,12.15
2023-06-09T21:10:52.408Z,12.88
2023-06-09T21:14:54.458Z,11.65
2023-06-09T21:18:57.825Z,15.45
2023-06-09T21:23:00.737Z,12.02
2023-06-09T21:27:02.974Z,13.00
2023-06-09T21:31:05.118Z,22.30
2023-06-09T21:35:07.937Z,12.85
2023-06-09T21:39:10.319Z,15.77
2023-06-09T21:43:12.099Z,14.07
2023-06-09T21:47:14.427Z,13.23
2023-06-09T21:51:17.164Z,12.45
2023-06-09T21:55:20.639Z,16.35
2023-06-09T21:59:22.853Z,14.25
2023-06-09T22:03:25.052Z,13.13
2023-06-09T22:07:27.290Z,11.43
2023-06-09T22:11:29.559Z,13.55
2023-06-09T22:15:31.836Z,15.05
2023-06-09T22:19:36.464Z,11.45
2023-06-09T22:23:38.602Z,13.75
2023-06-09T22:27:40.914Z,17.25
2023-06-09T22:31:43.259Z,11.93
2023-06-09T22:35:45.422Z,15.93
2023-06-09T22:39:49.830Z,14.38
2023-06-09T22:43:52.095Z,19.38
2023-06-09T22:47:55.109Z,15.32
2023-06-09T22:51:58.355Z,12.70
2023-06-09T22:56:00.795Z,14.23
2023-06-09T23:00:05.198Z,13.10
2023-06-09T23:04:11.991Z,13.20
2023-06-09T23:08:14.034Z,13.35
2023-06-09T23:12:16.588Z,14.40
2023-06-09T23:16:21.068Z,14.32
2023-06-09T23:20:23.376Z,14.73
2023-06-09T23:24:28.080Z,14.82
2023-06-09T23:28:30.844Z,13.05
2023-06-09T23:32:33.037Z,14.95
2023-06-09T23:36:35.150Z,15.45
2023-06-09T23:40:37.215Z,15.75
2023-06-09T23:44:41.049Z,13.23
2023-06-09T23:48:43.973Z,17.35
2023-06-09T23:52:46.549Z,17.15
2023-06-09T23:56:48.622Z,17.80
